createdAt,value
2022-08-20T00:03:09.886Z,99.9
2022-08-20T00:05:16.977Z,99.9
2022-08-20T00:07:20.787Z,99.9
2022-08-20T00:09:24.547Z,99.9
2022-08-20T00:11:29.013Z,99.9
2022-08-20T00:13:32.175Z,99.9
2022-08-20T00:15:35.969Z,99.9
2022-08-20T00:17:39.781Z,99.9
2022-08-20T00:19:46.874Z,99.9
2022-08-20T00:21:50.679Z,99.9
2022-08-20T00:23:54.491Z,99.9
2022-08-20T00:25:58.289Z,99.9
2022-08-20T00:28:02.109Z,99.9
2022-08-20T00:30:05.914Z,99.9
2022-08-20T00:32:09.713Z,99.9
2022-08-20T00:36:20.637Z,99.9
2022-08-20T00:38:24.431Z,99.9
2022-08-20T00:40:28.222Z,99.9
2022-08-20T00:42:32.057Z,99.9
2022-08-20T00:44:35.850Z,99.9
2022-08-20T00:53:57.919Z,99.9
2022-08-20T00:56:01.730Z,99.9
2022-08-20T00:58:05.706Z,99.9
2022-08-20T01:00:09.359Z,99.9
2022-08-20T01:02:18.192Z,99.9
2022-08-20T01:04:21.895Z,99.9
2022-08-20T01:06:25.702Z,99.9
2022-08-20T01:08:29.448Z,99.9
2022-08-20T01:10:33.260Z,99.9
2022-08-20T01:12:37.067Z,99.9
2022-08-20T01:14:40.867Z,99.9
2022-08-20T01:16:47.985Z,99.9
2022-08-20T01:18:51.777Z,99.9
2022-08-20T01:20:55.589Z,99.9
2022-08-20T01:22:59.417Z,99.9
2022-08-20T01:25:03.219Z,99.9
2022-08-20T01:27:07.022Z,99.9
2022-08-20T01:29:10.834Z,99.9
2022-08-20T01:33:21.737Z,99.9
2022-08-20T01:35:25.545Z,99.9
2022-08-20T01:37:31.638Z,99.9
2022-08-20T01:39:33.180Z,99.9
2022-08-20T01:41:36.957Z,99.9
2022-08-20T01:43:40.896Z,99.9
2022-08-20T01:45:48.687Z,99.9
2022-08-20T01:47:51.720Z,99.9
2022-08-20T01:49:55.501Z,99.9
2022-08-20T01:50:59.040Z,99.9
2022-08-20T01:53:03.175Z,99.9
2022-08-20T01:55:06.635Z,99.9
2022-08-20T01:57:10.450Z,99.9
2022-08-20T01:59:17.541Z,99.9
2022-08-20T02:01:21.399Z,99.9
2022-08-20T02:03:25.160Z,99.9
2022-08-20T02:05:29.942Z,99.9
2022-08-20T02:07:32.798Z,99.9
2022-08-20T02:11:40.433Z,99.9
2022-08-20T02:15:51.360Z,99.9
2022-08-20T02:19:58.950Z,99.9
2022-08-20T02:22:02.778Z,99.9
2022-08-20T02:26:10.422Z,99.9
2022-08-20T02:28:17.518Z,99.9
2022-08-20T02:30:28.199Z,99.9
2022-08-20T02:32:33.945Z,99.9
2022-08-20T02:34:28.951Z,99.9
2022-08-20T02:36:32.764Z,99.9
2022-08-20T02:38:36.593Z,99.9
2022-08-20T02:40:40.405Z,99.9
2022-08-20T02:49:19.807Z,99.9
2022-08-20T02:51:30.536Z,99.9
2022-08-20T02:55:34.553Z,99.9
2022-08-20T02:57:38.338Z,99.9
2022-08-20T02:59:42.178Z,99.9
2022-08-20T03:01:45.955Z,99.9
2022-08-20T03:10:04.534Z,99.9
2022-08-20T03:12:08.342Z,99.9
2022-08-20T03:14:12.176Z,99.9
2022-08-20T03:20:23.842Z,99.9
2022-08-20T03:24:34.550Z,99.9
2022-08-20T03:28:42.219Z,99.9
2022-08-20T03:30:46.006Z,99.9
2022-08-20T03:34:53.622Z,99.9
2022-08-20T03:39:04.617Z,99.9
2022-08-20T03:41:08.418Z,99.9
2022-08-20T03:43:12.229Z,99.9
2022-08-20T03:46:23.641Z,99.9
2022-08-20T03:48:23.417Z,99.9
2022-08-20T03:56:42.016Z,99.9
2022-08-20T04:04:57.292Z,99.9
2022-08-20T04:07:04.422Z,99.9
2022-08-20T04:09:09.714Z,99.9
2022-08-20T04:11:12.062Z,99.9
2022-08-20T04:13:15.898Z,99.9
2022-08-20T04:17:23.517Z,99.9
2022-08-20T04:21:34.488Z,99.9
2022-08-20T04:23:38.300Z,99.9
2022-08-20T04:25:43.198Z,99.9
2022-08-20T04:27:45.960Z,99.9
2022-08-20T04:31:53.607Z,99.9
2022-08-20T04:36:04.552Z,99.9
2022-08-20T04:38:08.381Z,99.9
2022-08-20T04:40:12.374Z,99.9
2022-08-20T04:43:19.600Z,99.9
2022-08-20T04:45:23.433Z,99.9
2022-08-20T04:47:34.687Z,99.9
2022-08-20T04:49:34.355Z,99.9
2022-08-20T04:51:38.199Z,99.9
2022-08-20T04:53:42.011Z,99.9
2022-08-20T04:55:45.860Z,99.9
2022-08-20T04:57:49.682Z,99.9
2022-08-20T04:59:57.703Z,99.9
2022-08-20T05:01:57.328Z,99.9
2022-08-20T05:04:04.427Z,99.9
2022-08-20T05:06:08.226Z,99.9
2022-08-20T05:08:18.798Z,99.9
2022-08-20T05:10:15.887Z,99.9
2022-08-20T05:12:19.734Z,99.9
2022-08-20T05:14:23.547Z,99.9
2022-08-20T05:16:27.398Z,99.9
2022-08-20T05:18:34.488Z,99.9
2022-08-20T05:20:38.321Z,99.9
2022-08-20T05:22:42.169Z,99.9
2022-08-20T05:24:46.004Z,99.9
2022-08-20T05:26:49.793Z,99.9
2022-08-20T05:28:57.762Z,99.9
2022-08-20T05:30:57.466Z,99.9
2022-08-20T05:33:04.556Z,99.9
2022-08-20T05:35:08.386Z,99.9
2022-08-20T05:37:12.283Z,99.9
2022-08-20T05:38:15.773Z,99.9
2022-08-20T05:40:19.658Z,99.9
2022-08-20T05:42:23.416Z,99.9
2022-08-20T05:44:27.251Z,99.9
2022-08-20T05:46:34.351Z,99.9
2022-08-20T05:48:38.194Z,99.9
2022-08-20T05:50:41.985Z,99.9
2022-08-20T05:52:45.785Z,99.9
2022-08-20T06:01:04.466Z,99.9
2022-08-20T06:03:08.201Z,99.9
2022-08-20T06:05:12.040Z,99.9
2022-08-20T06:07:15.866Z,99.9
2022-08-20T06:09:30.952Z,99.9
2022-08-20T06:11:23.484Z,99.9
2022-08-20T06:13:27.316Z,99.9
2022-08-20T06:19:43.542Z,99.9
2022-08-20T06:25:53.542Z,99.9
2022-08-20T06:27:57.540Z,99.9
2022-08-20T06:30:04.485Z,99.9
2022-08-20T06:34:12.128Z,99.9
2022-08-20T19:06:17.919Z,88.1
2022-08-20T19:08:21.722Z,87.8
2022-08-20T19:10:28.145Z,87.7
2022-08-20T19:12:53.820Z,87.3
2022-08-20T19:14:57.531Z,87.3
2022-08-20T19:19:08.428Z,87.9
2022-08-20T19:21:15.664Z,88.2
2022-08-20T19:23:10.200Z,88.6
2022-08-20T19:25:13.986Z,88.9
2022-08-20T19:27:17.786Z,89.2
2022-08-20T19:29:21.605Z,89.5
2022-08-20T19:33:44.035Z,90.2
2022-08-20T19:35:36.238Z,90.4
2022-08-20T19:37:46.556Z,90.6
2022-08-20T19:39:43.874Z,90.7
2022-08-20T19:43:51.466Z,91.1
2022-08-20T19:48:02.346Z,91.9
2022-08-20T19:50:06.167Z,92.1
2022-08-20T19:52:09.962Z,92.4
2022-08-20T19:54:13.877Z,92.8
2022-08-20T19:56:17.576Z,93.1
2022-08-20T19:58:26.014Z,93.4
2022-08-20T20:00:25.212Z,93.7
2022-08-20T20:02:32.320Z,94.2
2022-08-20T20:04:36.129Z,94.3
2022-08-20T20:06:39.954Z,94.5
2022-08-20T20:07:43.493Z,94.7
2022-08-20T20:09:47.284Z,94.9
2022-08-20T20:11:51.112Z,95.2
2022-08-20T20:13:54.915Z,95.4
2022-08-20T20:16:02.045Z,95.9
2022-08-20T20:18:05.853Z,96.1
2022-08-20T20:22:20.008Z,96.6
2022-08-20T20:24:17.289Z,96.9
2022-08-20T20:26:21.100Z,97.2
2022-08-20T20:28:24.906Z,97.5
2022-08-20T20:30:32.045Z,98.1
2022-08-20T20:32:35.844Z,98.4
2022-08-20T20:34:55.465Z,98.6
2022-08-20T20:38:47.344Z,98.9
2022-08-20T20:42:54.996Z,99.2
2022-08-20T20:45:02.094Z,99.5
2022-08-20T20:47:05.947Z,99.6
2022-08-20T20:49:09.750Z,99.8
2022-08-20T20:51:13.602Z,99.8
2022-08-20T20:53:17.411Z,99.9
2022-08-20T20:55:21.240Z,99.9
2022-08-20T20:57:38.046Z,99.9
2022-08-20T20:59:32.192Z,99.9
2022-08-20T21:03:39.866Z,99.9
2022-08-20T21:04:43.450Z,99.9
2022-08-20T21:06:47.266Z,99.9
2022-08-20T21:08:51.106Z,99.9
2022-08-20T21:10:54.962Z,99.9
2022-08-20T21:13:02.073Z,99.9
2022-08-20T21:15:05.906Z,99.9
2022-08-20T21:17:09.765Z,99.9
2022-08-20T21:19:13.568Z,99.9
2022-08-20T21:23:21.231Z,99.9
2022-08-20T21:25:25.075Z,99.9
2022-08-20T21:27:32.193Z,99.9
2022-08-20T21:29:36.049Z,99.9
2022-08-20T21:31:39.871Z,99.9
2022-08-20T21:33:43.721Z,99.9
2022-08-20T21:35:47.569Z,99.9
2022-08-20T21:37:51.413Z,99.9
2022-08-20T21:39:55.378Z,99.9
2022-08-20T21:42:02.376Z,99.9
2022-08-20T21:44:06.244Z,99.9
2022-08-20T21:46:10.100Z,99.9
2022-08-20T21:48:14.151Z,99.9
2022-08-20T21:50:18.816Z,99.9
2022-08-20T21:52:21.596Z,99.9
2022-08-20T21:54:25.457Z,99.9
2022-08-20T21:56:32.568Z,99.9
2022-08-20T21:58:36.415Z,99.9
2022-08-20T22:00:40.285Z,99.9
2022-08-20T22:03:49.600Z,99.9
2022-08-20T22:10:02.535Z,99.9
2022-08-20T22:12:06.386Z,99.9
2022-08-20T22:14:10.241Z,99.9
2022-08-20T22:16:14.078Z,99.9
2022-08-20T22:18:17.923Z,99.9
2022-08-20T22:20:21.772Z,99.9
2022-08-20T22:22:25.615Z,99.9
2022-08-20T22:24:32.731Z,99.9
2022-08-20T22:26:36.599Z,99.9
2022-08-20T22:28:40.425Z,99.9
2022-08-20T22:30:44.287Z,99.9
2022-08-20T22:34:51.996Z,99.9
2022-08-20T22:36:55.832Z,99.9
2022-08-20T22:43:10.653Z,99.9
2022-08-20T22:45:14.783Z,99.9
2022-08-20T22:47:18.317Z,99.9
2022-08-20T22:53:33.142Z,99.9
2022-08-20T22:55:37.002Z,99.9
2022-08-20T22:57:40.850Z,99.9
2022-08-20T23:00:11.203Z,99.9
2022-08-20T23:02:15.057Z,99.9
2022-08-20T23:04:18.909Z,99.9
2022-08-20T23:06:26.021Z,99.9
2022-08-20T23:08:29.866Z,99.9
2022-08-20T23:10:33.725Z,99.9
2022-08-20T23:12:37.557Z,99.9
2022-08-20T23:14:41.383Z,99.9
2022-08-20T23:16:45.248Z,99.9
2022-08-20T23:18:49.089Z,99.9
2022-08-20T23:20:56.255Z,99.9
2022-08-20T23:23:00.078Z,99.9
2022-08-20T23:25:03.896Z,99.9
2022-08-20T23:27:07.766Z,99.9
2022-08-20T23:29:11.613Z,99.9
2022-08-20T23:31:15.447Z,99.9
2022-08-20T23:33:19.293Z,99.9
2022-08-20T23:35:26.437Z,99.9
2022-08-20T23:37:30.297Z,99.9
2022-08-20T23:39:34.223Z,99.9
2022-08-20T23:43:41.855Z,99.9
2022-08-20T23:45:45.723Z,99.9
2022-08-20T23:47:49.551Z,99.9
2022-08-20T23:49:56.701Z,99.9
2022-08-20T23:52:00.571Z,99.9
2022-08-20T23:54:04.367Z,99.9
2022-08-20T23:55:07.949Z,99.9
2022-08-20T23:57:11.806Z,99.9
2022-08-20T23:59:15.749Z,99.9
